sensor_id;sensor_type;location;lat;lon;timestamp;pressure;altitude;pressure_sealevel;temperature;humidity
27144;BME280;14672;50.250;8.312;2023-06-10T00:02:10;98590.91;;;23.94;46.49
27144;BME280;14672;50.250;8.312;2023-06-10T00:04:36;98589.56;;;23.95;46.29
27144;BME280;14672;50.250;8.312;2023-06-10T00:07:04;98584.75;;;23.98;46.31
27144;BME280;14672;50.250;8.312;2023-06-10T00:09:35;98588.78;;;23.95;46.38
27144;BME280;14672;50.250;8.312;2023-06-10T00:12:07;98592.69;;;23.84;46.57
27144;BME280;14672;50.250;8.312;2023-06-10T00:14:39;98597.13;;;23.85;46.47
27144;BME280;14672;50.250;8.312;2023-06-10T00:17:06;98589.00;;;23.83;46.61
27144;BME280;14672;50.250;8.312;2023-06-10T00:19:38;98584.66;;;23.90;46.51
27144;BME280;14672;50.250;8.312;2023-06-10T00:22:07;98583.31;;;23.78;46.65
27144;BME280;14672;50.250;8.312;2023-06-10T00:24:34;98582.50;;;23.77;46.55
27144;BME280;14672;50.250;8.312;2023-06-10T00:27:00;98581.06;;;23.71;46.80
27144;BME280;14672;50.250;8.312;2023-06-10T00:29:26;98586.19;;;23.65;46.61
27144;BME280;14672;50.250;8.312;2023-06-10T00:31:52;98586.41;;;23.67;46.52
27144;BME280;14672;50.250;8.312;2023-06-10T00:34:23;98582.41;;;23.70;46.52
27144;BME280;14672;50.250;8.312;2023-06-10T00:36:49;98586.88;;;23.71;46.28
27144;BME280;14672;50.250;8.312;2023-06-10T00:39:16;98580.16;;;23.63;46.41
27144;BME280;14672;50.250;8.312;2023-06-10T00:41:42;98583.59;;;23.61;46.37
27144;BME280;14672;50.250;8.312;2023-06-10T00:44:08;98587.53;;;23.64;46.32
27144;BME280;14672;50.250;8.312;2023-06-10T00:46:34;98582.06;;;23.60;46.46
27144;BME280;14672;50.250;8.312;2023-06-10T00:49:00;98576.47;;;23.62;46.19
27144;BME280;14672;50.250;8.312;2023-06-10T00:51:26;98578.59;;;23.62;45.98
27144;BME280;14672;50.250;8.312;2023-06-10T00:53:53;98575.50;;;23.60;46.25
27144;BME280;14672;50.250;8.312;2023-06-10T00:56:22;98581.28;;;23.60;46.28
27144;BME280;14672;50.250;8.312;2023-06-10T00:58:48;98578.81;;;23.51;46.44
27144;BME280;14672;50.250;8.312;2023-06-10T01:01:14;98583.16;;;23.57;46.08
27144;BME280;14672;50.250;8.312;2023-06-10T01:03:40;98588.97;;;23.44;45.98
27144;BME280;14672;50.250;8.312;2023-06-10T01:06:42;98583.28;;;23.52;46.14
27144;BME280;14672;50.250;8.312;2023-06-10T01:09:43;98586.66;;;23.37;46.25
27144;BME280;14672;50.250;8.312;2023-06-10T01:12:41;98587.91;;;23.41;45.93
27144;BME280;14672;50.250;8.312;2023-06-10T01:15:12;98583.75;;;23.37;46.39
27144;BME280;14672;50.250;8.312;2023-06-10T01:18:00;98591.47;;;23.34;46.21
27144;BME280;14672;50.250;8.312;2023-06-10T01:20:29;98586.06;;;23.25;46.66
27144;BME280;14672;50.250;8.312;2023-06-10T01:22:59;98586.53;;;23.29;46.20
27144;BME280;14672;50.250;8.312;2023-06-10T01:25:27;98578.06;;;23.31;46.41
27144;BME280;14672;50.250;8.312;2023-06-10T01:28:29;98591.56;;;23.29;46.19
27144;BME280;14672;50.250;8.312;2023-06-10T01:31:18;98588.75;;;23.23;46.28
27144;BME280;14672;50.250;8.312;2023-06-10T01:33:51;98576.03;;;23.26;46.39
27144;BME280;14672;50.250;8.312;2023-06-10T01:36:19;98591.66;;;23.23;46.13
27144;BME280;14672;50.250;8.312;2023-06-10T01:38:51;98587.38;;;23.11;46.57
27144;BME280;14672;50.250;8.312;2023-06-10T01:41:18;98581.06;;;22.94;47.53
27144;BME280;14672;50.250;8.312;2023-06-10T01:43:47;98590.47;;;22.81;48.25
27144;BME280;14672;50.250;8.312;2023-06-10T01:46:15;98590.72;;;22.65;48.92
27144;BME280;14672;50.250;8.312;2023-06-10T01:48:42;98593.38;;;22.63;49.22
27144;BME280;14672;50.250;8.312;2023-06-10T01:51:08;98586.50;;;22.28;50.22
27144;BME280;14672;50.250;8.312;2023-06-10T01:53:34;98596.16;;;22.12;50.73
27144;BME280;14672;50.250;8.312;2023-06-10T01:55:59;98594.41;;;21.79;52.12
27144;BME280;14672;50.250;8.312;2023-06-10T01:58:25;98592.91;;;21.73;52.40
27144;BME280;14672;50.250;8.312;2023-06-10T02:00:51;98592.00;;;21.59;52.63
27144;BME280;14672;50.250;8.312;2023-06-10T02:03:16;98598.09;;;21.55;52.97
27144;BME280;14672;50.250;8.312;2023-06-10T02:05:42;98590.84;;;21.43;53.25
27144;BME280;14672;50.250;8.312;2023-06-10T02:08:08;98610.16;;;21.30;53.25
27144;BME280;14672;50.250;8.312;2023-06-10T02:10:34;98598.94;;;21.21;53.35
27144;BME280;14672;50.250;8.312;2023-06-10T02:13:00;98601.63;;;21.13;53.48
27144;BME280;14672;50.250;8.312;2023-06-10T02:15:26;98606.22;;;20.92;54.22
27144;BME280;14672;50.250;8.312;2023-06-10T02:17:52;98608.59;;;20.93;54.32
27144;BME280;14672;50.250;8.312;2023-06-10T02:20:18;98612.00;;;20.92;54.59
27144;BME280;14672;50.250;8.312;2023-06-10T02:22:44;98604.75;;;20.80;54.61
27144;BME280;14672;50.250;8.312;2023-06-10T02:25:10;98607.38;;;20.78;54.79
27144;BME280;14672;50.250;8.312;2023-06-10T02:27:36;98604.03;;;20.68;54.96
27144;BME280;14672;50.250;8.312;2023-06-10T02:30:01;98606.44;;;20.58;55.29
27144;BME280;14672;50.250;8.312;2023-06-10T02:32:27;98609.91;;;20.51;55.56
27144;BME280;14672;50.250;8.312;2023-06-10T02:34:53;98615.44;;;20.49;55.49
27144;BME280;14672;50.250;8.312;2023-06-10T02:37:19;98618.38;;;20.27;56.14
27144;BME280;14672;50.250;8.312;2023-06-10T02:39:46;98617.66;;;20.21;56.42
27144;BME280;14672;50.250;8.312;2023-06-10T02:42:11;98621.09;;;20.08;56.72
27144;BME280;14672;50.250;8.312;2023-06-10T02:44:38;98622.72;;;19.93;57.13
27144;BME280;14672;50.250;8.312;2023-06-10T02:47:04;98617.19;;;20.06;56.58
27144;BME280;14672;50.250;8.312;2023-06-10T02:49:30;98612.22;;;19.95;57.06
27144;BME280;14672;50.250;8.312;2023-06-10T02:51:56;98618.81;;;19.90;57.63
27144;BME280;14672;50.250;8.312;2023-06-10T02:54:23;98618.31;;;19.86;57.25
27144;BME280;14672;50.250;8.312;2023-06-10T02:56:51;98625.41;;;19.74;57.50
27144;BME280;14672;50.250;8.312;2023-06-10T02:59:18;98618.34;;;19.69;57.90
27144;BME280;14672;50.250;8.312;2023-06-10T03:01:46;98631.94;;;19.80;57.36
27144;BME280;14672;50.250;8.312;2023-06-10T03:04:12;98632.75;;;19.64;57.79
27144;BME280;14672;50.250;8.312;2023-06-10T03:06:39;98620.72;;;19.60;58.16
27144;BME280;14672;50.250;8.312;2023-06-10T03:09:06;98624.38;;;19.55;58.23
27144;BME280;14672;50.250;8.312;2023-06-10T03:11:33;98627.00;;;19.47;58.23
27144;BME280;14672;50.250;8.312;2023-06-10T03:13:59;98627.53;;;19.35;58.75
27144;BME280;14672;50.250;8.312;2023-06-10T03:16:25;98629.38;;;19.43;58.40
27144;BME280;14672;50.250;8.312;2023-06-10T03:18:53;98638.25;;;19.23;58.88
27144;BME280;14672;50.250;8.312;2023-06-10T03:21:20;98633.28;;;19.23;59.47
27144;BME280;14672;50.250;8.312;2023-06-10T03:23:46;98633.53;;;19.20;58.93
27144;BME280;14672;50.250;8.312;2023-06-10T03:26:11;98634.88;;;19.13;59.11
27144;BME280;14672;50.250;8.312;2023-06-10T03:28:40;98633.81;;;19.05;59.50
27144;BME280;14672;50.250;8.312;2023-06-10T03:31:06;98633.28;;;19.01;59.79
27144;BME280;14672;50.250;8.312;2023-06-10T03:33:32;98636.97;;;19.02;59.92
27144;BME280;14672;50.250;8.312;2023-06-10T03:35:58;98639.03;;;18.96;59.80
27144;BME280;14672;50.250;8.312;2023-06-10T03:38:24;98645.59;;;18.91;59.98
27144;BME280;14672;50.250;8.312;2023-06-10T03:40:50;98636.16;;;18.96;59.67
27144;BME280;14672;50.250;8.312;2023-06-10T03:43:16;98640.59;;;18.91;59.77
27144;BME280;14672;50.250;8.312;2023-06-10T03:45:42;98642.69;;;18.85;60.42
27144;BME280;14672;50.250;8.312;2023-06-10T03:48:08;98646.59;;;18.88;59.94
27144;BME280;14672;50.250;8.312;2023-06-10T03:50:35;98649.47;;;18.76;60.36
27144;BME280;14672;50.250;8.312;2023-06-10T03:53:01;98653.69;;;18.81;60.27
27144;BME280;14672;50.250;8.312;2023-06-10T03:55:27;98651.06;;;18.89;60.05
27144;BME280;14672;50.250;8.312;2023-06-10T03:57:53;98648.97;;;18.78;60.60
27144;BME280;14672;50.250;8.312;2023-06-10T04:00:19;98654.69;;;18.72;60.49
27144;BME280;14672;50.250;8.312;2023-06-10T04:02:47;98658.38;;;18.73;60.97
27144;BME280;14672;50.250;8.312;2023-06-10T04:05:19;98663.59;;;18.69;60.72
27144;BME280;14672;50.250;8.312;2023-06-10T04:07:48;98662.28;;;18.70;60.96
27144;BME280;14672;50.250;8.312;2023-06-10T04:10:15;98655.97;;;18.55;61.49
27144;BME280;14672;50.250;8.312;2023-06-10T04:12:41;98652.06;;;18.63;60.92
27144;BME280;14672;50.250;8.312;2023-06-10T04:15:08;98658.59;;;18.64;61.27
27144;BME280;14672;50.250;8.312;2023-06-10T04:17:34;98658.59;;;18.64;61.49
27144;BME280;14672;50.250;8.312;2023-06-10T04:20:00;98657.56;;;18.61;61.19
27144;BME280;14672;50.250;8.312;2023-06-10T04:22:26;98663.81;;;18.60;62.35
27144;BME280;14672;50.250;8.312;2023-06-10T04:24:52;98670.38;;;18.71;61.32
27144;BME280;14672;50.250;8.312;2023-06-10T04:27:18;98673.53;;;18.68;61.60
27144;BME280;14672;50.250;8.312;2023-06-10T04:29:44;98669.88;;;18.73;61.38
27144;BME280;14672;50.250;8.312;2023-06-10T04:32:13;98674.34;;;18.74;61.63
27144;BME280;14672;50.250;8.312;2023-06-10T04:34:39;98677.47;;;18.76;61.76
27144;BME280;14672;50.250;8.312;2023-06-10T04:37:05;98677.22;;;18.85;61.60
27144;BME280;14672;50.250;8.312;2023-06-10T04:39:32;98679.31;;;18.85;61.40
27144;BME280;14672;50.250;8.312;2023-06-10T04:41:57;98680.91;;;18.86;60.88
27144;BME280;14672;50.250;8.312;2023-06-10T04:44:23;98678.78;;;18.81;61.42
27144;BME280;14672;50.250;8.312;2023-06-10T04:46:49;98679.34;;;18.90;61.31
27144;BME280;14672;50.250;8.312;2023-06-10T04:49:18;98681.97;;;18.99;60.83
27144;BME280;14672;50.250;8.312;2023-06-10T04:51:44;98677.78;;;19.00;61.03
27144;BME280;14672;50.250;8.312;2023-06-10T04:54:09;98685.38;;;18.98;60.99
27144;BME280;14672;50.250;8.312;2023-06-10T04:56:35;98680.16;;;19.13;60.29
27144;BME280;14672;50.250;8.312;2023-06-10T04:59:02;98677.81;;;19.17;60.19
27144;BME280;14672;50.250;8.312;2023-06-10T05:01:27;98687.22;;;19.23;60.08
27144;BME280;14672;50.250;8.312;2023-06-10T05:03:53;98680.41;;;19.32;60.44
27144;BME280;14672;50.250;8.312;2023-06-10T05:06:19;98675.72;;;19.34;60.55
27144;BME280;14672;50.250;8.312;2023-06-10T05:08:51;98675.75;;;19.45;60.87
27144;BME280;14672;50.250;8.312;2023-06-10T05:11:19;98681.22;;;19.43;61.44
27144;BME280;14672;50.250;8.312;2023-06-10T05:13:45;98681.75;;;19.47;60.92
27144;BME280;14672;50.250;8.312;2023-06-10T05:16:10;98680.47;;;19.54;60.80
27144;BME280;14672;50.250;8.312;2023-06-10T05:18:36;98682.28;;;19.57;61.09
27144;BME280;14672;50.250;8.312;2023-06-10T05:21:02;98682.53;;;19.64;61.19
27144;BME280;14672;50.250;8.312;2023-06-10T05:23:28;98686.72;;;19.69;60.80
27144;BME280;14672;50.250;8.312;2023-06-10T05:25:54;98681.97;;;19.83;59.93
27144;BME280;14672;50.250;8.312;2023-06-10T05:28:20;98680.13;;;19.91;59.68
27144;BME280;14672;50.250;8.312;2023-06-10T05:30:46;98683.00;;;19.91;59.88
27144;BME280;14672;50.250;8.312;2023-06-10T05:33:12;98682.50;;;19.98;59.55
27144;BME280;14672;50.250;8.312;2023-06-10T05:35:37;98693.19;;;20.14;59.56
27144;BME280;14672;50.250;8.312;2023-06-10T05:38:04;98690.00;;;20.23;58.59
27144;BME280;14672;50.250;8.312;2023-06-10T05:40:30;98684.50;;;20.25;58.83
27144;BME280;14672;50.250;8.312;2023-06-10T05:42:56;98686.06;;;20.32;59.15
27144;BME280;14672;50.250;8.312;2023-06-10T05:45:21;98682.09;;;20.40;58.91
27144;BME280;14672;50.250;8.312;2023-06-10T05:47:47;98681.81;;;20.49;58.56
27144;BME280;14672;50.250;8.312;2023-06-10T05:50:13;98680.72;;;20.58;58.84
27144;BME280;14672;50.250;8.312;2023-06-10T05:52:39;98676.72;;;20.67;58.48
27144;BME280;14672;50.250;8.312;2023-06-10T05:55:06;98686.94;;;20.73;58.48
27144;BME280;14672;50.250;8.312;2023-06-10T05:57:32;98681.88;;;20.85;58.80
27144;BME280;14672;50.250;8.312;2023-06-10T05:59:59;98680.81;;;20.88;59.28
27144;BME280;14672;50.250;8.312;2023-06-10T06:02:25;98683.09;;;21.00;58.67
27144;BME280;14672;50.250;8.312;2023-06-10T06:04:51;98684.34;;;21.10;58.25
27144;BME280;14672;50.250;8.312;2023-06-10T06:07:17;98683.81;;;21.18;57.99
27144;BME280;14672;50.250;8.312;2023-06-10T06:09:46;98684.75;;;21.31;58.20
27144;BME280;14672;50.250;8.312;2023-06-10T06:12:12;98685.72;;;21.39;58.00
27144;BME280;14672;50.250;8.312;2023-06-10T06:14:38;98684.09;;;21.49;57.22
27144;BME280;14672;50.250;8.312;2023-06-10T06:17:06;98683.22;;;21.54;56.49
27144;BME280;14672;50.250;8.312;2023-06-10T06:19:32;98686.88;;;21.61;56.96
27144;BME280;14672;50.250;8.312;2023-06-10T06:21:57;98673.22;;;21.61;57.57
27144;BME280;14672;50.250;8.312;2023-06-10T06:24:23;98682.50;;;21.78;57.42
27144;BME280;14672;50.250;8.312;2023-06-10T06:26:49;98680.03;;;21.88;56.93
27144;BME280;14672;50.250;8.312;2023-06-10T06:29:15;98676.88;;;21.91;57.39
27144;BME280;14672;50.250;8.312;2023-06-10T06:31:40;98678.06;;;22.01;57.72
27144;BME280;14672;50.250;8.312;2023-06-10T06:34:06;98670.59;;;22.12;56.55
27144;BME280;14672;50.250;8.312;2023-06-10T06:36:32;98678.44;;;22.17;57.53
27144;BME280;14672;50.250;8.312;2023-06-10T06:38:58;98684.16;;;22.22;57.43
27144;BME280;14672;50.250;8.312;2023-06-10T06:41:27;98680.69;;;22.29;57.66
27144;BME280;14672;50.250;8.312;2023-06-10T06:43:54;98685.84;;;22.36;56.88
27144;BME280;14672;50.250;8.312;2023-06-10T06:46:20;98694.75;;;22.38;56.76
27144;BME280;14672;50.250;8.312;2023-06-10T06:48:48;98690.41;;;22.51;56.77
27144;BME280;14672;50.250;8.312;2023-06-10T06:51:14;98682.91;;;22.61;55.87
27144;BME280;14672;50.250;8.312;2023-06-10T06:53:40;98689.41;;;22.67;55.26
27144;BME280;14672;50.250;8.312;2023-06-10T06:56:12;98690.63;;;22.77;55.03
27144;BME280;14672;50.250;8.312;2023-06-10T06:58:44;98694.47;;;22.85;55.51
27144;BME280;14672;50.250;8.312;2023-06-10T07:01:10;98693.28;;;22.93;55.73
27144;BME280;14672;50.250;8.312;2023-06-10T07:03:35;98697.34;;;23.04;54.99
27144;BME280;14672;50.250;8.312;2023-06-10T07:06:01;98684.13;;;23.08;54.49
27144;BME280;14672;50.250;8.312;2023-06-10T07:08:27;98679.72;;;23.20;54.69
27144;BME280;14672;50.250;8.312;2023-06-10T07:10:53;98684.81;;;23.14;54.56
27144;BME280;14672;50.250;8.312;2023-06-10T07:13:19;98691.13;;;23.31;54.16
27144;BME280;14672;50.250;8.312;2023-06-10T07:15:46;98695.75;;;23.40;54.06
27144;BME280;14672;50.250;8.312;2023-06-10T07:18:11;98689.78;;;23.51;54.47
27144;BME280;14672;50.250;8.312;2023-06-10T07:20:37;98686.34;;;23.34;54.54
27144;BME280;14672;50.250;8.312;2023-06-10T07:23:03;98692.16;;;23.53;53.42
27144;BME280;14672;50.250;8.312;2023-06-10T07:25:29;98692.94;;;23.66;53.17
27144;BME280;14672;50.250;8.312;2023-06-10T07:27:54;98701.31;;;23.70;53.11
27144;BME280;14672;50.250;8.312;2023-06-10T07:30:20;98696.19;;;23.63;52.95
27144;BME280;14672;50.250;8.312;2023-06-10T07:32:46;98694.00;;;23.82;52.18
27144;BME280;14672;50.250;8.312;2023-06-10T07:35:12;98693.25;;;23.95;51.29
27144;BME280;14672;50.250;8.312;2023-06-10T07:37:38;98683.66;;;24.00;51.22
27144;BME280;14672;50.250;8.312;2023-06-10T07:40:04;98692.38;;;24.13;50.74
27144;BME280;14672;50.250;8.312;2023-06-10T07:42:36;98697.09;;;24.16;51.75
27144;BME280;14672;50.250;8.312;2023-06-10T07:45:06;98695.66;;;24.22;51.14
27144;BME280;14672;50.250;8.312;2023-06-10T07:47:33;98695.19;;;24.18;50.82
27144;BME280;14672;50.250;8.312;2023-06-10T07:50:00;98693.31;;;24.34;50.55
27144;BME280;14672;50.250;8.312;2023-06-10T07:52:26;98693.22;;;24.40;50.48
27144;BME280;14672;50.250;8.312;2023-06-10T07:54:52;98696.91;;;24.40;50.34
27144;BME280;14672;50.250;8.312;2023-06-10T07:57:19;98689.97;;;24.56;50.22
27144;BME280;14672;50.250;8.312;2023-06-10T07:59:44;98687.94;;;24.51;51.09
27144;BME280;14672;50.250;8.312;2023-06-10T08:02:10;98676.88;;;24.63;50.86
27144;BME280;14672;50.250;8.312;2023-06-10T08:04:36;98675.19;;;24.67;50.04
27144;BME280;14672;50.250;8.312;2023-06-10T08:07:02;98672.47;;;24.83;49.71
27144;BME280;14672;50.250;8.312;2023-06-10T08:09:28;98678.63;;;24.79;50.00
27144;BME280;14672;50.250;8.312;2023-06-10T08:11:54;98679.09;;;24.83;50.43
27144;BME280;14672;50.250;8.312;2023-06-10T08:14:21;98674.97;;;24.92;50.74
27144;BME280;14672;50.250;8.312;2023-06-10T08:16:47;98674.56;;;25.08;50.28
27144;BME280;14672;50.250;8.312;2023-06-10T08:19:13;98669.84;;;25.18;50.18
27144;BME280;14672;50.250;8.312;2023-06-10T08:21:39;98667.56;;;25.24;50.33
27144;BME280;14672;50.250;8.312;2023-06-10T08:24:09;98661.94;;;25.40;49.63
27144;BME280;14672;50.250;8.312;2023-06-10T08:26:35;98667.41;;;25.43;49.30
27144;BME280;14672;50.250;8.312;2023-06-10T08:29:01;98661.00;;;25.45;49.51
27144;BME280;14672;50.250;8.312;2023-06-10T08:31:26;98665.78;;;25.55;48.89
27144;BME280;14672;50.250;8.312;2023-06-10T08:33:52;98670.06;;;25.75;47.75
27144;BME280;14672;50.250;8.312;2023-06-10T08:36:18;98653.94;;;25.74;48.81
27144;BME280;14672;50.250;8.312;2023-06-10T08:38:44;98660.38;;;25.80;48.05
27144;BME280;14672;50.250;8.312;2023-06-10T08:41:10;98653.91;;;25.95;46.58
27144;BME280;14672;50.250;8.312;2023-06-10T08:43:46;98647.22;;;26.07;46.63
27144;BME280;14672;50.250;8.312;2023-06-10T08:46:14;98663.72;;;26.12;45.74
27144;BME280;14672;50.250;8.312;2023-06-10T08:48:44;98654.16;;;26.25;43.06
27144;BME280;14672;50.250;8.312;2023-06-10T08:51:14;98658.66;;;26.34;40.26
27144;BME280;14672;50.250;8.312;2023-06-10T08:53:53;98665.50;;;26.44;40.06
27144;BME280;14672;50.250;8.312;2023-06-10T08:56:24;98663.88;;;26.63;41.27
27144;BME280;14672;50.250;8.312;2023-06-10T08:58:52;98646.22;;;26.69;39.45
27144;BME280;14672;50.250;8.312;2023-06-10T09:01:19;98656.63;;;26.85;39.89
27144;BME280;14672;50.250;8.312;2023-06-10T09:03:45;98651.06;;;26.95;41.35
27144;BME280;14672;50.250;8.312;2023-06-10T09:06:12;98664.66;;;27.00;40.24
27144;BME280;14672;50.250;8.312;2023-06-10T09:08:39;98654.78;;;27.11;39.46
27144;BME280;14672;50.250;8.312;2023-06-10T09:11:05;98652.06;;;27.13;40.38
27144;BME280;14672;50.250;8.312;2023-06-10T09:13:30;98658.16;;;27.30;40.53
27144;BME280;14672;50.250;8.312;2023-06-10T09:15:57;98643.34;;;27.35;40.59
27144;BME280;14672;50.250;8.312;2023-06-10T09:18:28;98657.38;;;27.44;40.91
27144;BME280;14672;50.250;8.312;2023-06-10T09:20:53;98657.44;;;27.52;40.01
27144;BME280;14672;50.250;8.312;2023-06-10T09:23:19;98653.53;;;27.57;39.14
27144;BME280;14672;50.250;8.312;2023-06-10T09:25:46;98640.31;;;27.64;39.95
27144;BME280;14672;50.250;8.312;2023-06-10T09:28:21;98648.50;;;27.73;40.24
27144;BME280;14672;50.250;8.312;2023-06-10T09:30:46;98641.88;;;27.80;39.90
27144;BME280;14672;50.250;8.312;2023-06-10T09:33:14;98650.44;;;27.85;39.96
27144;BME280;14672;50.250;8.312;2023-06-10T09:35:49;98638.78;;;27.85;39.37
27144;BME280;14672;50.250;8.312;2023-06-10T09:38:20;98640.91;;;27.92;39.65
27144;BME280;14672;50.250;8.312;2023-06-10T09:40:51;98636.03;;;28.02;39.02
27144;BME280;14672;50.250;8.312;2023-06-10T09:43:18;98644.59;;;28.00;39.17
27144;BME280;14672;50.250;8.312;2023-06-10T09:45:44;98632.91;;;28.08;39.38
27144;BME280;14672;50.250;8.312;2023-06-10T09:48:10;98645.78;;;28.13;39.12
27144;BME280;14672;50.250;8.312;2023-06-10T09:50:43;98645.97;;;28.22;40.25
27144;BME280;14672;50.250;8.312;2023-06-10T09:53:12;98644.19;;;28.27;37.75
27144;BME280;14672;50.250;8.312;2023-06-10T09:55:39;98649.25;;;28.34;38.08
27144;BME280;14672;50.250;8.312;2023-06-10T09:58:05;98648.88;;;28.37;39.43
27144;BME280;14672;50.250;8.312;2023-06-10T10:00:34;98641.66;;;28.46;38.79
27144;BME280;14672;50.250;8.312;2023-06-10T10:03:01;98650.59;;;28.48;38.97
27144;BME280;14672;50.250;8.312;2023-06-10T10:05:28;98647.06;;;28.57;39.85
27144;BME280;14672;50.250;8.312;2023-06-10T10:07:55;98634.75;;;28.66;38.06
27144;BME280;14672;50.250;8.312;2023-06-10T10:10:22;98636.69;;;28.71;38.26
27144;BME280;14672;50.250;8.312;2023-06-10T10:12:52;98619.94;;;28.72;36.87
27144;BME280;14672;50.250;8.312;2023-06-10T10:15:21;98635.91;;;28.63;36.65
27144;BME280;14672;50.250;8.312;2023-06-10T10:17:56;98632.81;;;28.61;37.25
27144;BME280;14672;50.250;8.312;2023-06-10T10:20:29;98623.81;;;28.67;36.98
27144;BME280;14672;50.250;8.312;2023-06-10T10:22:58;98628.47;;;28.85;37.76
27144;BME280;14672;50.250;8.312;2023-06-10T10:25:29;98624.09;;;29.01;38.33
27144;BME280;14672;50.250;8.312;2023-06-10T10:28:06;98627.59;;;29.00;37.04
27144;BME280;14672;50.250;8.312;2023-06-10T10:30:48;98612.94;;;29.07;36.45
27144;BME280;14672;50.250;8.312;2023-06-10T10:33:42;98614.66;;;29.18;37.91
27144;BME280;14672;50.250;8.312;2023-06-10T10:36:09;98618.75;;;29.15;36.27
27144;BME280;14672;50.250;8.312;2023-06-10T10:38:36;98614.53;;;29.41;37.41
27144;BME280;14672;50.250;8.312;2023-06-10T10:41:02;98623.41;;;29.50;36.37
27144;BME280;14672;50.250;8.312;2023-06-10T10:43:29;98619.84;;;29.59;36.12
27144;BME280;14672;50.250;8.312;2023-06-10T10:46:11;98624.03;;;29.73;36.39
27144;BME280;14672;50.250;8.312;2023-06-10T10:48:40;98634.97;;;29.73;36.37
27144;BME280;14672;50.250;8.312;2023-06-10T10:51:07;98625.34;;;29.80;36.58
27144;BME280;14672;50.250;8.312;2023-06-10T10:53:33;98617.50;;;29.82;35.30
27144;BME280;14672;50.250;8.312;2023-06-10T10:58:31;98615.44;;;30.00;35.50
27144;BME280;14672;50.250;8.312;2023-06-10T11:00:57;98604.72;;;29.95;34.48
27144;BME280;14672;50.250;8.312;2023-06-10T11:03:29;98613.44;;;30.03;36.00
27144;BME280;14672;50.250;8.312;2023-06-10T11:05:58;98613.41;;;30.27;36.83
27144;BME280;14672;50.250;8.312;2023-06-10T11:10:59;98602.47;;;30.62;35.97
27144;BME280;14672;50.250;8.312;2023-06-10T11:13:27;98583.41;;;30.71;34.27
27144;BME280;14672;50.250;8.312;2023-06-10T11:15:58;98593.91;;;30.91;35.42
27144;BME280;14672;50.250;8.312;2023-06-10T11:18:30;98590.19;;;31.08;35.47
27144;BME280;14672;50.250;8.312;2023-06-10T11:21:05;98587.69;;;31.04;36.06
27144;BME280;14672;50.250;8.312;2023-06-10T11:23:40;98599.13;;;31.10;34.92
27144;BME280;14672;50.250;8.312;2023-06-10T11:31:52;98586.41;;;31.25;32.95
27144;BME280;14672;50.250;8.312;2023-06-10T11:34:24;98588.66;;;31.43;33.79
27144;BME280;14672;50.250;8.312;2023-06-10T11:36:51;98578.28;;;31.42;32.02
27144;BME280;14672;50.250;8.312;2023-06-10T11:39:19;98579.19;;;31.35;30.92
27144;BME280;14672;50.250;8.312;2023-06-10T11:41:45;98587.44;;;31.46;32.02
27144;BME280;14672;50.250;8.312;2023-06-10T11:44:13;98587.06;;;31.59;31.32
27144;BME280;14672;50.250;8.312;2023-06-10T11:46:40;98587.44;;;31.83;31.93
27144;BME280;14672;50.250;8.312;2023-06-10T11:49:08;98580.03;;;31.82;31.55
27144;BME280;14672;50.250;8.312;2023-06-10T11:51:41;98580.09;;;32.01;31.29
27144;BME280;14672;50.250;8.312;2023-06-10T11:54:14;98577.25;;;31.84;31.03
27144;BME280;14672;50.250;8.312;2023-06-10T11:56:41;98570.31;;;31.98;30.52
27144;BME280;14672;50.250;8.312;2023-06-10T11:59:08;98561.88;;;32.12;30.20
27144;BME280;14672;50.250;8.312;2023-06-10T12:01:36;98566.69;;;32.27;30.15
27144;BME280;14672;50.250;8.312;2023-06-10T12:04:12;98565.59;;;32.41;30.89
27144;BME280;14672;50.250;8.312;2023-06-10T12:06:50;98560.97;;;32.48;29.65
27144;BME280;14672;50.250;8.312;2023-06-10T12:09:24;98566.25;;;32.40;29.28
27144;BME280;14672;50.250;8.312;2023-06-10T12:12:05;98567.78;;;32.50;29.42
27144;BME280;14672;50.250;8.312;2023-06-10T12:14:59;98566.84;;;32.38;29.17
27144;BME280;14672;50.250;8.312;2023-06-10T12:19:58;98551.38;;;32.47;29.07
27144;BME280;14672;50.250;8.312;2023-06-10T12:22:25;98556.16;;;32.33;28.26
27144;BME280;14672;50.250;8.312;2023-06-10T12:24:59;98549.66;;;32.35;28.33
27144;BME280;14672;50.250;8.312;2023-06-10T12:27:25;98546.13;;;32.65;27.86
27144;BME280;14672;50.250;8.312;2023-06-10T12:29:52;98549.66;;;32.73;28.59
27144;BME280;14672;50.250;8.312;2023-06-10T12:32:19;98547.97;;;32.80;28.36
27144;BME280;14672;50.250;8.312;2023-06-10T12:34:48;98545.34;;;32.84;28.47
27144;BME280;14672;50.250;8.312;2023-06-10T12:37:14;98553.22;;;32.91;28.45
27144;BME280;14672;50.250;8.312;2023-06-10T12:39:41;98545.13;;;33.01;28.37
27144;BME280;14672;50.250;8.312;2023-06-10T12:42:09;98535.50;;;33.10;27.75
27144;BME280;14672;50.250;8.312;2023-06-10T12:44:39;98543.88;;;33.14;28.47
27144;BME280;14672;50.250;8.312;2023-06-10T12:47:11;98526.19;;;33.23;28.78
27144;BME280;14672;50.250;8.312;2023-06-10T12:49:40;98540.28;;;33.25;28.65
27144;BME280;14672;50.250;8.312;2023-06-10T12:52:08;98552.00;;;33.44;28.65
27144;BME280;14672;50.250;8.312;2023-06-10T12:54:34;98546.13;;;33.44;29.19
27144;BME280;14672;50.250;8.312;2023-06-10T12:57:00;98547.91;;;33.59;28.98
27144;BME280;14672;50.250;8.312;2023-06-10T12:59:27;98535.63;;;33.62;28.33
27144;BME280;14672;50.250;8.312;2023-06-10T13:01:54;98544.00;;;33.66;28.78
27144;BME280;14672;50.250;8.312;2023-06-10T13:04:20;98546.97;;;33.66;29.11
27144;BME280;14672;50.250;8.312;2023-06-10T13:06:47;98539.81;;;33.69;28.77
27144;BME280;14672;50.250;8.312;2023-06-10T13:09:15;98551.81;;;33.51;28.17
27144;BME280;14672;50.250;8.312;2023-06-10T13:11:41;98539.47;;;33.74;28.22
27144;BME280;14672;50.250;8.312;2023-06-10T13:14:09;98546.16;;;33.75;28.59
27144;BME280;14672;50.250;8.312;2023-06-10T13:16:36;98535.63;;;33.72;28.06
27144;BME280;14672;50.250;8.312;2023-06-10T13:19:04;98535.22;;;33.87;28.37